Time;durP1;ratioP1;P1;durP2;ratioP2;P2;SDS_P1;SDS_P2;PMS_P1;PMS_P2;Temp;Humidity;BMP_temperature;BMP_pressure;BME280_temperature;BME280_humidity;BME280_pressure;Samples;Min_cycle;Max_cycle;Signal;HPM_P1;HPM_P2
2022/05/30 00:00:22;;;;;;;15.00;2.90;;;36.30;21.80;;;;;;5089483;28;20124;-61
2022/05/30 00:02:49;;;;;;;19.95;3.13;;;36.10;21.90;;;;;;5075552;28;20057;-67
2022/05/30 00:05:18;;;;;;;19.27;2.83;;;36.00;21.90;;;;;;5073574;28;20141;-68
2022/05/30 00:07:44;;;;;;;21.58;2.92;;;36.00;22.00;;;;;;5100882;28;20395;-69
2022/05/30 00:10:13;;;;;;;14.27;3.08;;;36.00;22.20;;;;;;5088981;28;20149;-63
2022/05/30 00:12:40;;;;;;;18.02;3.63;;;36.00;22.30;;;;;;5069810;28;20047;-62
2022/05/30 00:15:09;;;;;;;23.23;3.95;;;36.00;22.10;;;;;;5072968;28;20545;-64
2022/05/30 00:17:37;;;;;;;23.98;3.70;;;35.80;22.80;;;;;;5069400;28;20054;-66
2022/05/30 00:20:05;;;;;;;30.10;3.13;;;35.70;22.30;;;;;;5088134;28;20605;-64
2022/05/30 00:22:32;;;;;;;22.88;3.08;;;35.60;22.40;;;;;;5080291;28;20046;-63
2022/05/30 00:24:58;;;;;;;18.77;2.95;;;35.50;22.40;;;;;;5069413;28;20062;-64
2022/05/30 00:27:25;;;;;;;14.35;3.08;;;35.60;22.20;;;;;;5075434;28;20039;-65
2022/05/30 00:29:51;;;;;;;23.02;3.85;;;35.60;22.10;;;;;;5072325;28;20143;-65
2022/05/30 00:32:18;;;;;;;26.77;4.75;;;35.60;22.40;;;;;;5053965;28;20065;-65
2022/05/30 00:34:44;;;;;;;16.38;3.40;;;35.50;22.60;;;;;;5076609;28;20051;-65
2022/05/30 00:37:11;;;;;;;20.92;3.13;;;35.40;22.60;;;;;;5074327;28;20402;-67
2022/05/30 00:39:37;;;;;;;16.27;3.03;;;35.30;22.70;;;;;;5089905;28;20572;-63
2022/05/30 00:42:09;;;;;;;31.83;10.93;;;35.20;22.40;;;;;;5071571;28;20192;-64
2022/05/30 00:44:35;;;;;;;26.20;6.45;;;35.10;22.80;;;;;;5088483;28;20041;-66
2022/05/30 00:47:02;;;;;;;24.63;5.82;;;35.10;23.10;;;;;;5088885;28;20056;-66
2022/05/30 00:49:28;;;;;;;28.67;4.18;;;35.00;22.90;;;;;;5071523;28;20079;-64
2022/05/30 00:51:56;;;;;;;25.00;5.25;;;34.90;23.20;;;;;;5054989;28;20052;-66
2022/05/30 00:54:28;;;;;;;33.75;11.50;;;34.90;23.10;;;;;;5073911;28;20137;-67
2022/05/30 00:56:57;;;;;;;31.05;4.20;;;34.90;22.90;;;;;;5090171;28;20529;-66
2022/05/30 00:59:24;;;;;;;534.60;38.85;;;34.80;23.40;;;;;;5088183;28;21017;-64
2022/05/30 01:01:50;;;;;;;138.95;14.65;;;34.70;22.90;;;;;;5071059;28;20064;-66
2022/05/30 01:07:08;;;;;;;27.05;4.05;;;34.70;23.10;;;;;;5073131;28;20061;-67
2022/05/30 01:09:37;;;;;;;24.05;2.95;;;34.60;23.20;;;;;;5069839;28;20047;-67
2022/05/30 01:12:07;;;;;;;20.65;4.03;;;34.40;23.10;;;;;;5069742;28;20065;-70
2022/05/30 01:14:36;;;;;;;15.25;2.83;;;34.40;23.30;;;;;;5070538;28;20080;-68
2022/05/30 01:17:17;;;;;;;19.60;3.38;;;34.10;23.30;;;;;;5071183;28;20173;-67
2022/05/30 01:20:07;;;;;;;12.52;3.75;;;34.00;23.30;;;;;;5074294;28;20506;-68
2022/05/30 01:23:02;;;;;;;19.33;3.60;;;33.80;23.30;;;;;;5071203;28;20072;-67
2022/05/30 01:26:10;;;;;;;28.65;3.72;;;33.70;23.40;;;;;;5066743;28;20110;-66
2022/05/30 01:28:39;;;;;;;15.63;2.45;;;33.60;23.20;;;;;;4971664;28;20074;-66
2022/05/30 01:31:06;;;;;;;19.77;3.17;;;33.50;23.30;;;;;;4971407;28;20107;-68
2022/05/30 01:33:33;;;;;;;20.92;3.28;;;33.50;23.10;;;;;;4971812;28;20101;-66
2022/05/30 01:35:59;;;;;;;18.25;3.67;;;33.20;23.20;;;;;;4987400;28;20070;-66
2022/05/30 01:38:27;;;;;;;44.17;4.55;;;33.30;23.80;;;;;;4969677;28;20075;-66
2022/05/30 01:40:55;;;;;;;17.25;3.03;;;33.20;23.20;;;;;;4986584;28;20080;-65
2022/05/30 01:43:22;;;;;;;19.25;2.90;;;33.20;23.30;;;;;;4970972;28;20072;-66
2022/05/30 01:45:49;;;;;;;14.43;3.70;;;33.10;23.20;;;;;;4971523;28;20516;-66
2022/05/30 01:48:15;;;;;;;17.15;4.45;;;33.10;23.30;;;;;;4971826;28;20071;-67
2022/05/30 01:50:44;;;;;;;33.53;4.85;;;33.10;23.30;;;;;;4971586;28;20106;-65
2022/05/30 01:53:11;;;;;;;50.45;9.88;;;32.90;23.10;;;;;;4990799;28;20169;-66
2022/05/30 01:55:38;;;;;;;47.40;18.25;;;32.70;23.30;;;;;;4956870;28;20083;-65
2022/05/30 01:58:05;;;;;;;31.13;14.15;;;32.60;23.30;;;;;;4985597;28;20160;-68
2022/05/30 02:00:33;;;;;;;38.05;16.98;;;32.50;23.50;;;;;;4969569;28;20129;-68
2022/05/30 02:02:59;;;;;;;20.80;4.47;;;32.40;23.40;;;;;;4986560;28;20114;-68
2022/05/30 02:05:26;;;;;;;24.63;7.15;;;32.40;23.40;;;;;;5074649;28;20089;-65
2022/05/30 02:07:52;;;;;;;30.38;6.90;;;32.30;23.40;;;;;;5070522;28;20128;-66
2022/05/30 02:10:19;;;;;;;62.15;9.95;;;32.10;23.40;;;;;;5087805;28;20077;-66
2022/05/30 02:12:45;;;;;;;19.92;5.82;;;32.10;23.50;;;;;;5070330;28;20083;-66
2022/05/30 02:15:11;;;;;;;28.58;11.68;;;31.90;23.40;;;;;;5087123;28;20502;-67
2022/05/30 02:17:38;;;;;;;40.53;20.02;;;31.90;23.50;;;;;;5069957;28;20104;-68
2022/05/30 02:20:06;;;;;;;23.38;11.85;;;31.70;23.50;;;;;;5088038;28;20507;-64
2022/05/30 02:22:32;;;;;;;21.90;7.25;;;31.70;23.50;;;;;;5087146;28;20077;-66
2022/05/30 02:25:00;;;;;;;24.85;5.00;;;31.60;23.60;;;;;;5084604;28;20065;-67
2022/05/30 02:27:26;;;;;;;13.32;4.07;;;31.50;23.40;;;;;;5084851;28;20156;-66
2022/05/30 02:29:53;;;;;;;12.60;3.35;;;31.40;23.40;;;;;;5067771;28;20720;-66
2022/05/30 02:32:19;;;;;;;12.85;3.70;;;31.40;23.30;;;;;;5068632;28;20083;-66
2022/05/30 02:37:31;;;;;;;17.40;3.60;;;31.20;23.40;;;;;;5089497;28;20574;-66
2022/05/30 02:39:58;;;;;;;23.25;3.92;;;31.10;23.50;;;;;;5072270;28;20579;-65
2022/05/30 02:42:24;;;;;;;25.08;8.05;;;31.10;23.60;;;;;;5071081;28;20549;-66
2022/05/30 02:44:50;;;;;;;20.75;6.45;;;31.00;23.70;;;;;;5073150;28;20078;-66
2022/05/30 02:47:17;;;;;;;19.77;5.78;;;30.90;23.90;;;;;;5073637;28;20090;-67
2022/05/30 02:49:44;;;;;;;16.55;3.65;;;30.80;24.00;;;;;;5073052;28;20579;-67
2022/05/30 02:52:10;;;;;;;19.02;3.58;;;30.70;24.10;;;;;;5075437;28;20669;-66
2022/05/30 02:54:37;;;;;;;19.58;3.28;;;30.70;24.10;;;;;;5073778;28;20066;-66
2022/05/30 02:57:03;;;;;;;14.48;2.80;;;30.60;24.10;;;;;;5072557;28;20089;-66
2022/05/30 02:59:30;;;;;;;15.50;2.97;;;30.50;24.70;;;;;;5072341;28;20501;-66
2022/05/30 03:01:56;;;;;;;24.20;3.20;;;30.40;24.40;;;;;;5072037;28;20098;-66
2022/05/30 03:04:23;;;;;;;17.45;3.67;;;30.40;24.70;;;;;;5090825;28;20070;-65
2022/05/30 03:06:50;;;;;;;21.10;3.67;;;30.30;24.80;;;;;;5093245;28;20512;-65
2022/05/30 03:09:18;;;;;;;14.60;3.72;;;30.20;24.90;;;;;;5074136;28;20172;-66
2022/05/30 03:11:45;;;;;;;27.88;3.47;;;30.10;24.80;;;;;;5074874;28;20103;-66
2022/05/30 03:14:11;;;;;;;19.65;3.45;;;30.00;24.90;;;;;;5072545;28;20111;-66
2022/05/30 03:16:38;;;;;;;13.15;2.95;;;29.90;24.90;;;;;;5094218;28;20078;-64
2022/05/30 03:19:04;;;;;;;15.30;4.45;;;29.90;24.90;;;;;;5074170;28;20095;-65
2022/05/30 03:21:30;;;;;;;31.15;10.35;;;29.80;24.80;;;;;;5074226;28;20477;-65
2022/05/30 03:23:58;;;;;;;27.02;8.82;;;29.80;25.70;;;;;;5073393;28;20072;-66
2022/05/30 03:26:24;;;;;;;33.17;9.80;;;29.70;25.00;;;;;;5073745;28;20110;-66
2022/05/30 03:28:51;;;;;;;14.98;5.70;;;29.70;25.10;;;;;;5074336;28;20080;-66
2022/05/30 03:31:17;;;;;;;11.68;5.10;;;29.60;24.90;;;;;;5087087;28;20097;-64
2022/05/30 03:33:45;;;;;;;19.98;6.95;;;29.60;24.70;;;;;;5075589;28;20112;-65
2022/05/30 03:36:26;;;;;;;26.50;6.18;;;29.50;24.70;;;;;;5056185;28;20560;-63
2022/05/30 03:38:53;;;;;;;17.33;6.45;;;29.50;24.90;;;;;;5072761;28;20420;-64
2022/05/30 03:41:19;;;;;;;22.88;3.83;;;29.40;25.40;;;;;;5075307;28;20094;-65
2022/05/30 03:43:46;;;;;;;15.48;3.72;;;29.30;24.80;;;;;;5072950;28;20778;-65
2022/05/30 03:46:12;;;;;;;17.00;3.40;;;29.30;24.90;;;;;;5072627;28;20071;-67
2022/05/30 03:48:40;;;;;;;31.52;10.73;;;29.20;25.10;;;;;;5091529;28;20446;-65
2022/05/30 03:51:12;;;;;;;31.90;13.60;;;29.20;25.50;;;;;;5070992;28;20125;-61
2022/05/30 03:53:38;;;;;;;18.95;6.97;;;29.10;25.60;;;;;;5068550;28;20189;-65
2022/05/30 03:56:05;;;;;;;17.50;5.03;;;29.00;25.50;;;;;;5072705;28;20079;-65
2022/05/30 03:58:31;;;;;;;21.42;6.45;;;28.90;25.50;;;;;;5056990;28;20079;-65
2022/05/30 04:00:58;;;;;;;18.83;4.88;;;28.90;25.50;;;;;;5077038;28;20106;-65
2022/05/30 04:03:24;;;;;;;21.40;5.93;;;28.80;25.40;;;;;;5076025;28;20641;-66
2022/05/30 04:05:51;;;;;;;21.85;4.28;;;28.80;25.50;;;;;;5071962;28;20133;-66
2022/05/30 04:08:17;;;;;;;21.50;5.03;;;28.70;25.50;;;;;;5073655;28;20072;-66
2022/05/30 04:10:44;;;;;;;19.65;3.83;;;28.70;25.60;;;;;;5104962;28;20078;-65
2022/05/30 04:13:11;;;;;;;23.20;5.82;;;28.60;25.70;;;;;;5075404;28;20083;-65
2022/05/30 04:15:37;;;;;;;11.63;3.60;;;28.60;25.90;;;;;;5072537;28;20252;-64
2022/05/30 04:18:05;;;;;;;16.15;4.40;;;28.50;25.90;;;;;;5091528;28;20096;-65
2022/05/30 04:20:32;;;;;;;16.38;4.32;;;28.50;26.10;;;;;;5090506;28;20162;-65
2022/05/30 04:22:59;;;;;;;14.63;3.50;;;28.30;26.00;;;;;;5072755;28;20159;-65
2022/05/30 04:25:27;;;;;;;49.05;23.67;;;28.30;26.20;;;;;;5090613;28;20523;-66
2022/05/30 04:27:53;;;;;;;19.60;5.75;;;28.20;26.30;;;;;;5074358;28;20129;-65
2022/05/30 04:30:20;;;;;;;27.17;9.77;;;28.20;26.20;;;;;;5072366;28;20137;-65
2022/05/30 04:32:47;;;;;;;24.88;6.00;;;28.20;26.20;;;;;;5072703;28;20076;-67
2022/05/30 04:35:14;;;;;;;28.77;7.15;;;28.30;26.30;;;;;;5090834;28;20078;-64
2022/05/30 04:37:40;;;;;;;13.18;3.30;;;28.20;26.30;;;;;;5071806;28;20082;-65
2022/05/30 04:40:11;;;;;;;17.42;3.42;;;28.20;26.30;;;;;;5056365;28;20103;-67
2022/05/30 04:42:37;;;;;;;15.55;4.35;;;28.10;26.80;;;;;;5090912;28;20087;-66
2022/05/30 04:45:04;;;;;;;14.43;4.03;;;28.00;26.40;;;;;;5058768;28;20067;-65
2022/05/30 04:47:35;;;;;;;11.38;4.28;;;28.00;26.60;;;;;;5078047;28;20131;-66
2022/05/30 04:50:04;;;;;;;16.05;3.80;;;28.00;26.60;;;;;;5089808;28;20079;-65
2022/05/30 04:52:31;;;;;;;14.57;3.38;;;27.90;26.60;;;;;;5053318;28;20072;-65
2022/05/30 04:54:58;;;;;;;9.60;3.67;;;27.80;26.70;;;;;;5089833;28;20122;-65
2022/05/30 04:57:24;;;;;;;11.68;4.10;;;27.80;26.70;;;;;;5089573;28;20072;-65
2022/05/30 04:59:51;;;;;;;7.35;3.30;;;27.80;26.90;;;;;;5069783;28;20075;-65
2022/05/30 05:02:18;;;;;;;11.13;2.50;;;27.70;26.80;;;;;;5073979;28;20080;-65
2022/05/30 05:04:44;;;;;;;15.80;2.90;;;27.70;26.90;;;;;;5097561;28;20078;-65
2022/05/30 05:07:11;;;;;;;13.05;2.60;;;27.70;27.00;;;;;;5056816;28;20067;-65
2022/05/30 05:09:57;;;;;;;10.65;2.15;;;27.60;27.20;;;;;;5071356;28;20071;-65
2022/05/30 05:12:23;;;;;;;11.30;2.78;;;27.60;27.30;;;;;;5089873;28;20131;-66
2022/05/30 05:14:49;;;;;;;13.10;2.92;;;27.50;27.40;;;;;;5091301;28;20075;-64
2022/05/30 05:17:16;;;;;;;13.88;3.40;;;27.50;27.70;;;;;;5096303;28;20080;-69
2022/05/30 05:19:42;;;;;;;12.88;3.05;;;27.40;28.10;;;;;;5077112;28;20071;-66
2022/05/30 05:22:14;;;;;;;16.25;3.45;;;27.40;28.40;;;;;;5070931;28;20571;-65
2022/05/30 05:24:41;;;;;;;16.30;3.17;;;27.30;28.40;;;;;;5078491;28;20078;-70
2022/05/30 05:27:07;;;;;;;12.25;3.03;;;27.20;29.10;;;;;;5087303;28;20128;-67
2022/05/30 05:29:34;;;;;;;16.48;3.47;;;27.20;28.90;;;;;;5071025;28;20074;-66
2022/05/30 05:32:01;;;;;;;10.70;3.25;;;27.10;29.00;;;;;;5088519;28;20112;-68
2022/05/30 05:34:28;;;;;;;14.98;3.80;;;27.00;29.10;;;;;;5071682;28;20098;-67
2022/05/30 05:36:54;;;;;;;12.75;2.92;;;27.00;29.30;;;;;;5105879;28;20106;-68
2022/05/30 05:39:20;;;;;;;12.90;2.97;;;27.00;29.60;;;;;;5069990;28;20103;-66
2022/05/30 05:41:47;;;;;;;14.30;2.88;;;27.00;29.70;;;;;;5070251;28;20094;-69
2022/05/30 05:44:15;;;;;;;18.58;5.47;;;26.90;29.80;;;;;;5068380;28;20087;-68
2022/05/30 05:46:42;;;;;;;56.00;39.28;;;26.90;30.00;;;;;;5069009;28;20094;-70
2022/05/30 05:49:09;;;;;;;89.57;78.18;;;26.80;30.20;;;;;;5069881;28;20110;-69
2022/05/30 05:51:37;;;;;;;20.50;4.13;;;26.80;30.50;;;;;;5068476;28;20116;-68
2022/05/30 05:54:03;;;;;;;13.13;3.45;;;26.80;30.60;;;;;;5068670;28;20071;-69
2022/05/30 05:56:30;;;;;;;17.48;2.95;;;26.80;31.00;;;;;;5085651;28;20076;-69
2022/05/30 05:58:58;;;;;;;13.73;3.03;;;26.70;31.20;;;;;;5088720;28;20101;-68
2022/05/30 06:01:33;;;;;;;12.57;2.70;;;26.70;31.40;;;;;;5070427;28;20153;-68
2022/05/30 06:04:04;;;;;;;13.57;2.92;;;26.70;31.60;;;;;;5071576;28;20124;-70
2022/05/30 06:06:31;;;;;;;17.30;3.00;;;26.60;31.80;;;;;;5068846;28;20644;-69
2022/05/30 06:08:59;;;;;;;12.43;2.75;;;26.60;32.20;;;;;;5070376;28;20087;-69
2022/05/30 06:11:26;;;;;;;9.27;2.60;;;26.60;31.90;;;;;;5069680;28;20150;-69
2022/05/30 06:13:52;;;;;;;11.32;2.78;;;26.60;32.10;;;;;;5070154;28;20078;-69
2022/05/30 06:16:22;;;;;;;13.32;3.00;;;26.60;32.40;;;;;;5073643;28;20545;-70
2022/05/30 06:18:51;;;;;;;6.90;2.45;;;26.40;32.40;;;;;;5088410;28;20079;-70
2022/05/30 06:21:18;;;;;;;10.35;2.28;;;26.40;32.50;;;;;;5069616;28;20144;-69
2022/05/30 06:23:46;;;;;;;9.82;2.25;;;26.40;32.70;;;;;;5088240;28;20090;-70
2022/05/30 06:26:14;;;;;;;11.55;3.03;;;26.30;32.80;;;;;;5069017;28;20078;-70
2022/05/30 06:28:41;;;;;;;11.57;2.40;;;26.20;32.90;;;;;;5073140;28;20091;-68
2022/05/30 06:31:10;;;;;;;8.93;2.35;;;26.20;33.10;;;;;;5066957;28;20632;-69
2022/05/30 06:33:38;;;;;;;11.15;2.45;;;26.20;33.20;;;;;;5067858;28;20160;-71
2022/05/30 06:36:10;;;;;;;10.27;2.53;;;26.10;33.20;;;;;;5071256;28;20523;-69
2022/05/30 06:38:36;;;;;;;10.10;2.50;;;26.00;33.30;;;;;;5069706;28;20086;-69
2022/05/30 06:41:24;;;;;;;11.30;2.65;;;26.00;33.40;;;;;;5067408;28;20538;-68
2022/05/30 06:43:53;;;;;;;17.02;2.75;;;25.90;33.50;;;;;;5066410;28;20076;-72
2022/05/30 06:46:20;;;;;;;6.82;2.67;;;25.90;33.70;;;;;;5069747;28;20068;-68
2022/05/30 06:48:47;;;;;;;11.40;3.22;;;25.90;33.70;;;;;;5068965;28;20072;-69
2022/05/30 06:51:16;;;;;;;12.70;3.38;;;25.90;33.40;;;;;;5055084;28;20116;-69
2022/05/30 06:53:45;;;;;;;11.50;2.60;;;25.90;33.50;;;;;;5054378;28;20090;-70
2022/05/30 06:56:14;;;;;;;8.15;2.33;;;25.90;33.40;;;;;;5070006;28;20086;-70
2022/05/30 06:58:43;;;;;;;9.55;2.47;;;25.80;33.20;;;;;;5067906;28;20078;-68
2022/05/30 07:01:09;;;;;;;11.75;2.80;;;25.80;33.10;;;;;;5083589;28;20091;-67
2022/05/30 07:03:37;;;;;;;11.40;3.05;;;25.80;33.30;;;;;;5068172;28;20067;-68
2022/05/30 07:06:16;;;;;;;14.77;2.92;;;25.70;32.90;;;;;;5068449;28;20104;-68
2022/05/30 07:08:46;;;;;;;10.25;3.05;;;25.70;32.90;;;;;;5066674;28;20137;-69
2022/05/30 07:11:18;;;;;;;12.02;2.67;;;25.70;32.80;;;;;;5069135;28;20082;-68
2022/05/30 07:13:46;;;;;;;12.30;2.30;;;25.70;32.70;;;;;;5068551;28;20117;-70
2022/05/30 07:16:13;;;;;;;5.72;2.17;;;25.70;32.40;;;;;;5069845;28;20434;-71
2022/05/30 07:18:40;;;;;;;9.68;2.28;;;25.70;32.90;;;;;;5068575;28;20636;-67
2022/05/30 07:21:08;;;;;;;13.82;2.63;;;25.70;32.10;;;;;;5068458;28;20100;-66
2022/05/30 07:23:37;;;;;;;10.52;2.72;;;25.70;32.10;;;;;;5070995;28;20071;-67
2022/05/30 07:26:07;;;;;;;14.63;2.70;;;25.70;32.40;;;;;;5091087;28;20600;-66
2022/05/30 07:28:34;;;;;;;6.35;2.30;;;25.60;31.80;;;;;;5073687;28;20075;-67
2022/05/30 07:31:11;;;;;;;8.52;2.72;;;25.60;31.80;;;;;;5070793;28;20156;-68
2022/05/30 07:33:39;;;;;;;10.82;2.13;;;25.60;31.60;;;;;;5089887;28;20182;-68
2022/05/30 07:36:14;;;;;;;8.82;2.47;;;25.60;31.50;;;;;;5072801;28;20067;-68
2022/05/30 07:38:41;;;;;;;13.73;3.03;;;25.70;31.60;;;;;;5072033;28;20538;-69
2022/05/30 07:41:09;;;;;;;9.07;2.20;;;25.60;31.70;;;;;;5079797;28;20119;-71
2022/05/30 07:43:36;;;;;;;11.32;2.47;;;25.60;31.80;;;;;;5099497;28;20498;-70
2022/05/30 07:46:05;;;;;;;8.60;2.28;;;25.50;32.00;;;;;;5093466;28;20075;-68
2022/05/30 07:48:32;;;;;;;8.75;2.33;;;25.50;32.00;;;;;;5081069;28;20075;-69
2022/05/30 07:50:59;;;;;;;8.95;2.13;;;25.50;32.00;;;;;;5071071;28;20079;-66
2022/05/30 07:53:27;;;;;;;11.20;2.30;;;25.40;32.00;;;;;;5072512;28;20072;-69
2022/05/30 07:55:53;;;;;;;14.23;2.35;;;25.40;32.10;;;;;;5085024;28;20590;-68
2022/05/30 07:58:20;;;;;;;10.30;2.33;;;25.30;32.10;;;;;;5070338;28;20083;-68
2022/05/30 08:00:49;;;;;;;13.68;2.60;;;25.40;32.10;;;;;;5072316;28;20079;-68
2022/05/30 08:03:16;;;;;;;7.35;2.55;;;25.40;32.00;;;;;;5072847;28;20071;-67
2022/05/30 08:05:44;;;;;;;7.60;2.30;;;25.40;31.80;;;;;;5090014;28;20098;-67
2022/05/30 08:08:11;;;;;;;9.23;2.53;;;25.40;32.40;;;;;;5071084;28;20086;-66
2022/05/30 08:10:37;;;;;;;10.18;2.85;;;25.40;32.30;;;;;;5070267;28;20068;-68
2022/05/30 08:13:05;;;;;;;6.85;2.72;;;25.30;32.00;;;;;;5071196;28;20071;-68
2022/05/30 08:15:31;;;;;;;10.05;2.33;;;25.20;32.10;;;;;;5071999;28;20546;-69
2022/05/30 08:18:00;;;;;;;17.95;3.08;;;25.10;31.90;;;;;;5070960;28;20531;-67
2022/05/30 08:20:29;;;;;;;9.88;3.00;;;25.10;32.00;;;;;;5072188;28;20189;-68
2022/05/30 08:22:56;;;;;;;9.82;2.70;;;25.10;31.90;;;;;;5104825;27;20519;-68
2022/05/30 08:25:22;;;;;;;8.55;2.65;;;25.10;31.80;;;;;;5073737;28;20600;-68
2022/05/30 08:27:49;;;;;;;21.98;3.40;;;25.10;32.40;;;;;;5071491;28;20083;-69
2022/05/30 08:30:19;;;;;;;16.27;3.75;;;25.00;32.10;;;;;;5071229;28;20142;-68
2022/05/30 08:32:47;;;;;;;17.35;3.92;;;25.00;32.10;;;;;;5070707;28;20076;-67
2022/05/30 08:35:16;;;;;;;18.70;3.90;;;25.00;32.20;;;;;;5072534;28;20160;-67
2022/05/30 08:37:44;;;;;;;19.98;3.70;;;25.00;32.00;;;;;;5100405;28;20088;-68
2022/05/30 08:43:05;;;;;;;13.30;3.60;;;24.90;32.00;;;;;;5074224;28;20159;-68
2022/05/30 08:45:33;;;;;;;17.48;6.35;;;24.80;32.10;;;;;;5069983;28;20120;-67
2022/05/30 08:48:00;;;;;;;11.40;3.58;;;24.70;32.10;;;;;;5075082;28;20063;-68
2022/05/30 08:50:39;;;;;;;12.00;2.60;;;24.60;32.20;;;;;;5071096;28;20083;-68
2022/05/30 08:53:26;;;;;;;11.27;2.90;;;24.60;32.20;;;;;;5087576;28;20526;-68
2022/05/30 08:56:02;;;;;;;11.15;2.40;;;24.60;32.30;;;;;;5070225;28;20660;-67
2022/05/30 08:58:54;;;;;;;9.20;2.85;;;24.60;32.60;;;;;;5069674;28;20507;-67
2022/05/30 09:01:31;;;;;;;7.40;2.47;;;24.60;32.70;;;;;;5089460;28;20605;-69
2022/05/30 09:04:17;;;;;;;14.10;2.55;;;24.60;32.90;;;;;;5088433;28;20079;-67
2022/05/30 09:07:00;;;;;;;10.77;2.28;;;24.60;33.20;;;;;;5071313;28;20541;-67
2022/05/30 09:09:53;;;;;;;10.43;3.03;;;24.50;33.30;;;;;;5069742;28;20076;-67
2022/05/30 09:12:48;;;;;;;9.60;2.53;;;24.50;33.50;;;;;;5050026;28;20600;-67
2022/05/30 09:15:24;;;;;;;9.18;2.45;;;24.40;33.60;;;;;;5072971;28;20437;-67
2022/05/30 09:18:01;;;;;;;7.60;2.17;;;24.40;33.80;;;;;;5071494;28;20150;-68
2022/05/30 09:20:28;;;;;;;;;;;24.40;33.90;;;;;;5071526;28;20083;-66
2022/05/30 09:22:55;;;;;;;5.40;1.95;;;24.30;34.30;;;;;;5071626;28;19997;-68
2022/05/30 09:25:57;;;;;;;10.57;2.47;;;24.30;34.50;;;;;;5069594;28;20111;-67
2022/05/30 09:28:25;;;;;;;5.82;1.98;;;24.40;35.10;;;;;;5087986;28;20059;-67
2022/05/30 09:31:02;;;;;;;10.45;2.30;;;24.40;34.60;;;;;;5070124;28;20134;-69
2022/05/30 09:33:36;;;;;;;10.50;2.47;;;24.20;34.30;;;;;;5067833;28;20154;-68
2022/05/30 09:36:27;;;;;;;10.60;2.47;;;24.20;34.40;;;;;;5071654;28;20083;-69
2022/05/30 09:38:56;;;;;;;8.70;2.45;;;24.10;34.50;;;;;;5077728;28;20083;-68
2022/05/30 09:41:25;;;;;;;10.85;2.30;;;24.00;35.00;;;;;;5067362;28;21026;-68
2022/05/30 09:44:03;;;;;;;8.40;2.53;;;24.00;35.30;;;;;;5070506;28;20762;-68
2022/05/30 09:46:38;;;;;;;9.73;2.30;;;24.10;35.80;;;;;;5069119;28;20090;-68
2022/05/30 09:49:25;;;;;;;9.88;2.45;;;24.10;35.60;;;;;;5088335;28;20087;-68
2022/05/30 09:52:02;;;;;;;11.68;2.85;;;24.10;36.70;;;;;;5071603;28;20184;-67
2022/05/30 09:54:28;;;;;;;9.88;2.83;;;24.00;36.00;;;;;;5070945;28;20075;-67
2022/05/30 09:57:11;;;;;;;11.45;3.00;;;23.90;35.70;;;;;;5069738;28;20095;-67
2022/05/30 09:59:44;;;;;;;8.23;2.83;;;23.80;35.90;;;;;;5072125;28;20067;-67
2022/05/30 10:02:38;;;;;;;4.60;1.98;;;23.80;35.90;;;;;;5068070;28;20083;-67
2022/05/30 10:05:08;;;;;;;6.65;2.28;;;23.80;35.40;;;;;;5086654;28;20513;-67
2022/05/30 10:07:44;;;;;;;7.97;2.45;;;23.80;35.20;;;;;;5051929;28;20074;-68
2022/05/30 10:10:19;;;;;;;7.95;1.70;;;23.80;35.50;;;;;;5086698;28;20064;-67
2022/05/30 10:12:59;;;;;;;7.55;1.98;;;23.80;35.50;;;;;;5086549;28;20071;-67
2022/05/30 10:15:38;;;;;;;6.35;2.03;;;23.70;35.40;;;;;;5069213;28;20530;-68
2022/05/30 10:18:14;;;;;;;7.32;1.88;;;23.70;35.20;;;;;;5069519;28;20136;-68
2022/05/30 10:20:43;;;;;;;7.05;1.95;;;23.70;35.10;;;;;;5086554;28;20091;-68
2022/05/30 10:29:24;;;;;;;6.28;1.80;;;23.80;34.90;;;;;;5086519;28;20150;-68
2022/05/30 10:32:20;;;;;;;9.20;1.92;;;23.70;34.80;;;;;;5068266;28;20115;-69
2022/05/30 10:35:10;;;;;;;7.05;1.48;;;23.70;35.00;;;;;;5069763;28;20555;-68
2022/05/30 10:38:02;;;;;;;8.32;1.80;;;23.60;34.50;;;;;;5072040;28;20079;-67
2022/05/30 10:41:06;;;;;;;6.55;1.73;;;23.60;34.40;;;;;;5109521;28;20084;-68
2022/05/30 10:43:57;;;;;;;8.73;2.00;;;23.60;34.40;;;;;;5069773;28;20099;-68
2022/05/30 10:46:39;;;;;;;5.13;1.83;;;23.60;34.40;;;;;;5071861;28;20170;-68
2022/05/30 10:49:14;;;;;;;7.72;1.80;;;23.60;34.30;;;;;;5069958;28;20078;-68
2022/05/30 10:51:49;;;;;;;6.03;1.63;;;23.60;34.10;;;;;;5071409;28;20454;-69
2022/05/30 10:54:31;;;;;;;8.32;1.90;;;23.60;34.60;;;;;;5069965;28;20079;-65
2022/05/30 10:57:19;;;;;;;7.88;2.47;;;23.60;34.70;;;;;;5069325;28;20206;-68
2022/05/30 10:59:48;;;;;;;12.75;2.75;;;23.60;35.10;;;;;;5072501;28;20075;-67
2022/05/30 11:02:37;;;;;;;13.50;3.05;;;23.60;35.60;;;;;;5090694;28;20093;-68
2022/05/30 11:05:23;;;;;;;9.35;2.60;;;23.60;35.70;;;;;;5072164;28;20806;-67
2022/05/30 11:08:14;;;;;;;10.23;3.42;;;23.60;36.00;;;;;;5056670;28;20159;-67
2022/05/30 11:10:58;;;;;;;10.10;2.53;;;23.60;36.30;;;;;;5054191;28;20094;-67
2022/05/30 11:13:44;;;;;;;11.73;3.15;;;23.50;36.10;;;;;;5075398;28;20071;-67
2022/05/30 11:16:32;;;;;;;10.32;2.47;;;23.30;36.20;;;;;;5101379;28;20081;-68
2022/05/30 11:19:12;;;;;;;8.77;2.83;;;23.30;36.60;;;;;;5073243;28;20083;-65
2022/05/30 11:21:54;;;;;;;8.73;2.80;;;23.30;37.00;;;;;;5090119;28;20095;-69
2022/05/30 11:24:20;;;;;;;12.05;3.10;;;23.20;37.00;;;;;;5072679;28;20139;-69
2022/05/30 11:26:58;;;;;;;10.30;2.92;;;23.20;37.10;;;;;;5071645;28;20067;-67
2022/05/30 11:29:51;;;;;;;15.90;3.28;;;23.10;37.20;;;;;;5071480;28;20094;-67
2022/05/30 11:32:41;;;;;;;53.10;3.83;;;23.10;37.80;;;;;;5072565;28;20438;-68
2022/05/30 11:35:31;;;;;;;30.02;3.75;;;23.00;37.70;;;;;;5056813;28;20535;-67
2022/05/30 11:38:25;;;;;;;12.43;2.80;;;23.00;38.10;;;;;;5090940;28;20059;-67
2022/05/30 11:40:55;;;;;;;9.30;3.08;;;22.90;38.10;;;;;;5070646;28;20186;-67
2022/05/30 11:44:09;;;;;;;15.90;3.45;;;22.70;38.30;;;;;;5072244;28;20079;-67
2022/05/30 11:46:47;;;;;;;10.27;3.00;;;22.70;38.70;;;;;;4993164;28;20077;-67
2022/05/30 11:49:28;;;;;;;8.48;3.03;;;22.80;39.00;;;;;;4992307;28;20077;-67
2022/05/30 11:52:12;;;;;;;9.45;2.90;;;22.80;38.60;;;;;;5009331;28;20089;-68
2022/05/30 11:54:56;;;;;;;16.50;3.53;;;22.80;39.10;;;;;;4992320;28;20493;-67
2022/05/30 11:57:54;;;;;;;10.25;2.50;;;22.70;38.80;;;;;;4991853;28;20098;-66
2022/05/30 12:00:37;;;;;;;8.48;2.45;;;22.80;39.10;;;;;;5000456;28;20097;-69
2022/05/30 12:03:29;;;;;;;13.45;2.65;;;22.70;39.50;;;;;;5007303;28;20082;-69
2022/05/30 12:06:10;;;;;;;16.13;2.70;;;22.70;39.20;;;;;;4993156;28;20170;-68
2022/05/30 12:08:54;;;;;;;14.20;2.80;;;22.70;39.00;;;;;;4991133;28;20418;-68
2022/05/30 12:11:47;;;;;;;11.48;2.78;;;22.60;39.10;;;;;;4984809;28;20151;-68
2022/05/30 12:14:49;;;;;;;11.93;2.20;;;22.50;39.30;;;;;;5021615;28;20077;-69
2022/05/30 12:24:01;;;;;;;9.48;2.70;;;22.50;40.30;;;;;;5103985;28;20079;-70
2022/05/30 12:26:49;;;;;;;19.05;2.90;;;22.60;40.20;;;;;;5084623;28;20159;-67
2022/05/30 12:29:37;;;;;;;11.57;2.47;;;22.40;40.20;;;;;;5103471;28;20060;-66
2022/05/30 12:32:16;;;;;;;7.97;2.60;;;22.40;40.70;;;;;;5071110;28;20119;-68
2022/05/30 12:35:01;;;;;;;15.50;2.42;;;22.30;40.80;;;;;;5077331;28;20079;-69
2022/05/30 12:37:45;;;;;;;17.10;2.70;;;22.30;41.20;;;;;;5081581;28;20090;-69
2022/05/30 12:40:27;;;;;;;12.65;2.35;;;22.30;41.20;;;;;;5074298;28;20087;-68
2022/05/30 12:43:23;;;;;;;25.77;2.75;;;22.30;41.80;;;;;;5087650;28;20095;-70
2022/05/30 12:45:56;;;;;;;15.07;2.80;;;22.20;41.40;;;;;;5070373;28;20072;-69
2022/05/30 12:48:33;;;;;;;18.35;3.40;;;22.20;42.20;;;;;;5071923;28;20075;-67
2022/05/30 12:51:41;;;;;;;15.80;2.70;;;22.20;41.70;;;;;;5088603;28;20075;-66
2022/05/30 12:54:08;;;;;;;25.13;3.08;;;22.20;41.70;;;;;;5079789;28;20079;-68
2022/05/30 12:56:40;;;;;;;16.02;2.97;;;22.20;42.00;;;;;;5086286;28;20094;-65
2022/05/30 12:59:06;;;;;;;19.20;3.33;;;22.20;42.60;;;;;;5087885;28;20608;-67
2022/05/30 13:01:45;;;;;;;35.42;4.15;;;22.20;42.30;;;;;;5088735;28;20079;-68
2022/05/30 13:04:26;;;;;;;16.02;3.60;;;22.20;42.40;;;;;;5073660;28;20087;-68
2022/05/30 13:07:01;;;;;;;68.53;4.70;;;22.20;42.30;;;;;;5072007;28;20082;-66
2022/05/30 13:09:47;;;;;;;123.15;7.82;;;22.20;42.00;;;;;;5069310;28;20162;-69
2022/05/30 13:12:51;;;;;;;50.92;5.20;;;22.20;42.90;;;;;;5070926;28;20161;-67
2022/05/30 13:15:38;;;;;;;48.95;5.53;;;22.20;43.60;;;;;;5088281;28;20383;-67
2022/05/30 13:18:25;;;;;;;;;;;22.20;43.90;;;;;;5092797;28;20080;-67
2022/05/30 13:21:00;;;;;;;29.30;3.45;;;22.20;43.90;;;;;;5088304;28;19986;-69
2022/05/30 13:23:28;;;;;;;27.95;3.17;;;22.10;44.50;;;;;;5072647;28;20063;-69
2022/05/30 13:25:58;;;;;;;34.67;3.88;;;22.10;44.40;;;;;;5072553;28;20072;-68